Time;durP1;ratioP1;P1;durP2;ratioP2;P2;SDS_P1;SDS_P2;PMS_P1;PMS_P2;Temp;Humidity;BMP_temperature;BMP_pressure;BME280_temperature;BME280_humidity;BME280_pressure;Samples;Min_cycle;Max_cycle;Signal;HPM_P1;HPM_P2
2022/09/19 00:01:10;;;;;;;0.90;0.90;;;;;;;9.00;84.90;98692.53;5092999;28;41539;-79
2022/09/19 00:03:38;;;;;;;0.77;0.60;;;;;;;8.96;84.91;98683.09;5090203;28;42946;-80
2022/09/19 00:06:09;;;;;;;0.97;0.40;;;;;;;8.77;85.36;98661.34;5092994;28;42645;-79
2022/09/19 00:08:38;;;;;;;0.50;0.50;;;;;;;8.87;85.28;98694.19;5093280;28;38982;-79
2022/09/19 00:11:07;;;;;;;0.40;0.40;;;;;;;8.83;85.20;98686.53;5075733;28;41769;-80
2022/09/19 00:13:39;;;;;;;0.60;0.60;;;;;;;8.89;85.67;98694.97;5075700;28;43187;-80
2022/09/19 00:16:07;;;;;;;0.40;0.40;;;;;;;8.93;85.61;98693.81;5092800;28;41226;-79
2022/09/19 00:18:35;;;;;;;0.40;0.40;;;;;;;8.85;85.25;98685.50;5075745;28;38982;-80
2022/09/19 00:21:02;;;;;;;1.73;0.63;;;;;;;8.71;85.38;98677.53;5092763;28;40893;-79
2022/09/19 00:26:17;;;;;;;1.23;0.50;;;;;;;8.74;85.56;98677.38;5092698;28;40929;-80
2022/09/19 00:28:45;;;;;;;0.60;0.57;;;;;;;8.87;85.47;98702.13;5092772;28;39870;-80
2022/09/19 00:31:17;;;;;;;0.60;0.60;;;;;;;8.83;85.29;98676.81;5075218;28;42062;-80
2022/09/19 00:33:46;;;;;;;0.60;0.60;;;;;;;8.99;85.02;98687.34;5092521;28;42495;-80
2022/09/19 00:36:14;;;;;;;0.80;0.63;;;;;;;9.02;84.99;98686.31;5075139;28;42242;-79
2022/09/19 00:38:44;;;;;;;0.67;0.67;;;;;;;9.05;84.97;98680.84;5091993;28;39014;-79
2022/09/19 00:41:16;;;;;;;0.60;0.60;;;;;;;9.09;85.11;98688.50;5075223;28;41801;-80
2022/09/19 00:43:48;;;;;;;2.40;0.60;;;;;;;9.10;85.30;98678.78;5075202;28;44074;-79
2022/09/19 00:46:16;;;;;;;2.20;0.70;;;;;;;9.10;84.85;98674.34;5075036;28;42284;-80
2022/09/19 00:48:47;;;;;;;0.63;0.60;;;;;;;9.15;84.88;98685.47;5075318;28;39922;-79
2022/09/19 00:51:20;;;;;;;0.73;0.73;;;;;;;9.19;84.81;98694.94;5089611;28;41929;-79
2022/09/19 00:53:49;;;;;;;1.60;0.77;;;;;;;9.21;84.77;98679.84;5091858;28;42974;-79
2022/09/19 00:56:18;;;;;;;1.13;0.53;;;;;;;9.25;84.81;98677.88;5073839;28;41080;-80
2022/09/19 00:58:46;;;;;;;1.37;0.77;;;;;;;9.24;85.24;98677.03;5092182;28;40030;-80
2022/09/19 01:01:16;;;;;;;1.20;0.70;;;;;;;9.15;84.88;98659.06;5068881;28;42200;-80
2022/09/19 01:03:46;;;;;;;1.27;0.70;;;;;;;9.28;84.67;98677.66;5091305;28;43534;-80
2022/09/19 01:06:36;;;;;;;0.90;0.80;;;;;;;9.22;84.85;98667.50;5090342;28;42962;-80
2022/09/19 01:09:22;;;;;;;1.37;0.80;;;;;;;9.30;84.73;98689.00;5088854;28;39959;-80
2022/09/19 01:12:16;;;;;;;1.43;0.70;;;;;;;9.23;84.71;98680.63;5090051;28;41921;-80
2022/09/19 01:15:11;;;;;;;1.90;0.90;;;;;;;9.33;84.46;98702.03;5089811;28;42859;-79
2022/09/19 01:17:47;;;;;;;0.70;0.70;;;;;;;9.36;84.31;98707.16;5057677;28;43495;-79
2022/09/19 01:20:47;;;;;;;2.93;1.13;;;;;;;9.38;84.69;98697.34;5057971;28;38759;-79
2022/09/19 01:23:44;;;;;;;1.43;0.90;;;;;;;9.42;84.69;98706.78;5057123;28;41844;-79
2022/09/19 01:26:38;;;;;;;0.80;0.80;;;;;;;9.44;84.64;98704.88;5072111;28;42507;-79
2022/09/19 01:29:14;;;;;;;2.03;0.97;;;;;;;9.44;84.45;98678.47;5058072;28;42859;-79
2022/09/19 01:31:46;;;;;;;1.17;1.03;;;;;;;9.46;84.41;98703.00;5057897;28;38878;-80
2022/09/19 01:34:20;;;;;;;2.17;1.10;;;;;;;9.47;84.42;98699.44;5057499;28;41846;-80
2022/09/19 01:36:54;;;;;;;4.50;1.10;;;;;;;9.38;84.24;98684.13;5057924;28;42877;-80
2022/09/19 01:39:24;;;;;;;2.60;1.17;;;;;;;9.49;84.14;98704.63;5057552;28;44046;-80
2022/09/19 01:41:58;;;;;;;2.23;1.23;;;;;;;9.53;84.59;98708.75;5074431;28;39922;-80
2022/09/19 01:44:30;;;;;;;2.17;1.20;;;;;;;9.55;84.12;98710.38;5057634;28;40880;-81
2022/09/19 01:47:10;;;;;;;1.47;1.13;;;;;;;9.58;84.20;98714.63;5057794;28;42944;-80
2022/09/19 01:49:47;;;;;;;1.37;1.27;;;;;;;9.62;84.30;98717.00;5071377;28;42362;-80
2022/09/19 01:52:24;;;;;;;1.90;1.20;;;;;;;9.62;84.35;98709.06;5057487;28;39712;-80
2022/09/19 01:54:59;;;;;;;1.93;1.10;;;;;;;9.63;84.27;98721.34;5071361;28;42021;-80
2022/09/19 01:57:34;;;;;;;2.37;1.10;;;;;;;9.66;84.46;98725.59;5073738;28;43749;-80
2022/09/19 02:00:12;;;;;;;1.23;1.13;;;;;;;9.53;84.40;98704.31;5057555;28;41903;-81
2022/09/19 02:02:52;;;;;;;4.77;1.50;;;;;;;9.65;84.68;98724.72;5073857;28;39218;-80
2022/09/19 02:05:35;;;;;;;2.97;1.13;;;;;;;9.65;84.75;98714.16;5057536;28;41711;-79
2022/09/19 02:08:09;;;;;;;2.67;1.37;;;;;;;9.59;84.70;98705.75;5074190;28;42662;-80
2022/09/19 02:10:44;;;;;;;3.53;1.50;;;;;;;9.65;84.53;98711.50;5057824;28;41194;-81
2022/09/19 02:13:16;;;;;;;1.70;1.10;;;;;;;9.68;84.58;98716.63;5057773;28;40283;-80
2022/09/19 02:15:53;;;;;;;2.93;1.27;;;;;;;9.76;84.58;98721.47;5058454;28;42419;-80
2022/09/19 02:18:29;;;;;;;3.40;1.40;;;;;;;9.46;85.17;98667.78;5060719;28;43228;-80
2022/09/19 02:21:01;;;;;;;4.10;1.70;;;;;;;9.75;84.69;98714.47;5075039;28;43168;-80
2022/09/19 02:23:32;;;;;;;1.33;1.23;;;;;;;9.69;85.17;98693.69;5078003;28;39270;-81
2022/09/19 02:26:03;;;;;;;2.90;1.23;;;;;;;9.78;85.49;98718.69;5060729;28;40920;-80
2022/09/19 02:28:38;;;;;;;2.27;1.10;;;;;;;9.68;85.24;98708.69;5061137;28;41661;-80
2022/09/19 02:31:11;;;;;;;2.80;1.43;;;;;;;9.69;84.86;98722.75;5060285;28;41093;-80
2022/09/19 02:33:44;;;;;;;2.33;1.17;;;;;;;9.78;85.19;98737.19;5060616;28;42325;-80
2022/09/19 02:36:18;;;;;;;2.93;1.50;;;;;;;9.78;85.19;98742.50;5060914;28;40837;-81
2022/09/19 02:38:54;;;;;;;2.60;1.50;;;;;;;9.81;84.98;98739.66;5060431;28;42920;-79
2022/09/19 02:41:46;;;;;;;4.10;1.50;;;;;;;9.81;85.27;98747.59;5077557;28;41247;-80
2022/09/19 02:44:19;;;;;;;2.53;1.40;;;;;;;9.71;85.07;98740.25;5074486;28;39964;-80
2022/09/19 02:46:55;;;;;;;2.03;1.43;;;;;;;9.88;85.25;98762.16;5060651;28;40523;-80
2022/09/19 02:49:38;;;;;;;1.40;1.30;;;;;;;9.83;85.07;98751.84;5060303;28;41471;-80
2022/09/19 02:52:15;;;;;;;2.30;1.43;;;;;;;9.92;84.74;98764.50;5060175;28;42463;-80
2022/09/19 02:54:47;;;;;;;2.47;1.70;;;;;;;9.93;84.63;98760.06;5059829;28;38948;-81
2022/09/19 02:57:18;;;;;;;1.30;1.20;;;;;;;9.96;84.99;98755.47;5060220;28;42114;-80
2022/09/19 02:59:50;;;;;;;2.77;1.30;;;;;;;9.86;84.68;98734.97;5060389;28;41701;-80
2022/09/19 03:02:24;;;;;;;3.80;1.47;;;;;;;9.99;84.84;98759.72;5076268;28;42316;-80
2022/09/19 03:04:59;;;;;;;2.30;1.57;;;;;;;9.91;84.60;98744.28;5074410;28;40923;-80
2022/09/19 03:07:32;;;;;;;5.47;1.77;;;;;;;9.98;84.83;98760.66;5060398;28;41824;-80
2022/09/19 03:10:12;;;;;;;3.90;1.47;;;;;;;9.96;84.71;98759.91;5060616;28;41773;-80
2022/09/19 03:13:11;;;;;;;1.73;1.50;;;;;;;9.92;84.62;98756.59;5076434;28;43030;-80
2022/09/19 03:15:46;;;;;;;4.77;2.97;;;;;;;9.91;84.92;98768.09;5067191;28;39575;-80
2022/09/19 03:18:18;;;;;;;3.23;1.63;;;;;;;9.91;84.98;98759.31;5097297;28;40622;-81
2022/09/19 03:20:49;;;;;;;1.60;1.40;;;;;;;9.94;84.96;98761.78;5097239;28;41708;-80
2022/09/19 03:23:21;;;;;;;3.10;2.13;;;;;;;9.94;84.89;98756.50;5080458;28;41304;-80
2022/09/19 03:25:49;;;;;;;2.63;1.80;;;;;;;9.80;84.87;98754.69;5111787;28;41922;-80
2022/09/19 03:28:19;;;;;;;3.47;1.83;;;;;;;9.94;84.77;98780.31;5097093;28;42591;-80
2022/09/19 03:30:49;;;;;;;1.60;1.50;;;;;;;9.99;84.74;98778.22;5094290;28;42775;-80
2022/09/19 03:33:18;;;;;;;2.53;1.70;;;;;;;9.99;85.14;98775.59;5079932;28;41443;-81
2022/09/19 03:35:50;;;;;;;5.10;1.90;;;;;;;10.03;84.87;98783.22;5080025;28;38943;-80
2022/09/19 03:38:19;;;;;;;1.73;1.63;;;;;;;10.09;84.77;98792.59;5080071;28;40798;-80
2022/09/19 03:40:47;;;;;;;5.13;1.80;;;;;;;10.10;84.58;98796.94;5080197;28;42069;-80
2022/09/19 03:43:16;;;;;;;2.60;2.20;;;;;;;10.12;84.54;98797.69;5080014;28;42484;-80
2022/09/19 03:45:44;;;;;;;2.57;1.80;;;;;;;10.12;84.44;98792.41;5079425;28;39824;-80
2022/09/19 03:48:12;;;;;;;1.90;1.60;;;;;;;10.08;84.38;98785.59;5096426;28;41706;-81
2022/09/19 03:50:41;;;;;;;3.27;1.87;;;;;;;10.22;84.52;98798.88;5096605;28;43746;-80
2022/09/19 03:53:14;;;;;;;5.70;2.23;;;;;;;10.25;84.28;98798.69;5093949;28;42280;-81
2022/09/19 03:55:41;;;;;;;4.43;2.37;;;;;;;10.29;84.42;98807.25;5096417;28;40045;-81
2022/09/19 03:58:14;;;;;;;3.00;2.00;;;;;;;10.31;84.35;98819.47;5079467;28;40963;-79
2022/09/19 04:00:42;;;;;;;2.27;1.80;;;;;;;10.32;84.27;98821.16;5095973;28;43608;-80
2022/09/19 04:03:12;;;;;;;2.33;1.70;;;;;;;10.39;83.95;98833.06;5079414;28;42382;-81
2022/09/19 04:05:42;;;;;;;4.00;2.40;;;;;;;10.41;84.01;98835.63;5079337;28;40537;-80
2022/09/19 04:08:11;;;;;;;2.93;1.90;;;;;;;10.43;84.06;98837.22;5079127;28;40851;-79
2022/09/19 04:10:40;;;;;;;1.93;1.80;;;;;;;10.46;83.70;98849.44;5096310;28;43666;-79
2022/09/19 04:13:08;;;;;;;2.10;1.77;;;;;;;10.48;83.64;98841.41;5078859;28;43717;-80
2022/09/19 04:15:36;;;;;;;1.93;1.60;;;;;;;10.50;83.65;98843.00;5113723;28;41870;-79
2022/09/19 04:18:07;;;;;;;2.53;1.77;;;;;;;10.53;83.47;98848.09;5079306;28;41054;-79
2022/09/19 04:20:37;;;;;;;3.70;2.00;;;;;;;10.54;83.49;98852.44;5078811;28;42872;-79
2022/09/19 04:23:26;;;;;;;4.10;2.33;;;;;;;10.56;83.49;98849.69;5096004;28;41376;-81
2022/09/19 04:26:03;;;;;;;2.07;1.97;;;;;;;10.44;83.58;98835.44;5111419;28;40141;-80
2022/09/19 04:28:43;;;;;;;3.10;2.13;;;;;;;10.55;83.55;98859.44;5092915;28;41788;-80
2022/09/19 04:31:12;;;;;;;2.97;1.73;;;;;;;10.57;83.36;98862.00;5078631;28;44249;-80
2022/09/19 04:33:41;;;;;;;2.83;2.00;;;;;;;10.57;83.21;98856.69;5078980;28;42125;-81
2022/09/19 04:36:09;;;;;;;1.93;1.70;;;;;;;10.58;83.14;98869.84;5095614;28;40046;-79
2022/09/19 04:38:38;;;;;;;2.33;1.80;;;;;;;10.56;83.45;98860.28;5077613;28;43569;-79
2022/09/19 04:41:14;;;;;;;4.50;2.47;;;;;;;10.54;83.40;98867.47;5078497;28;41534;-81
2022/09/19 04:43:42;;;;;;;4.33;2.33;;;;;;;10.59;83.44;98866.25;5095832;28;42378;-80
2022/09/19 04:46:33;;;;;;;3.10;2.10;;;;;;;10.58;83.25;98869.84;5084551;28;39985;-80
2022/09/19 04:49:07;;;;;;;2.63;2.20;;;;;;;10.61;83.03;98874.97;5078642;28;42337;-80
2022/09/19 04:51:38;;;;;;;3.10;1.90;;;;;;;10.63;83.41;98882.81;5078185;28;41620;-80
2022/09/19 04:54:07;;;;;;;2.93;2.10;;;;;;;10.65;82.94;98889.69;5078283;28;41905;-80
2022/09/19 04:56:35;;;;;;;5.90;1.97;;;;;;;10.68;83.20;98880.72;5078785;28;40043;-80
2022/09/19 04:59:06;;;;;;;4.80;2.30;;;;;;;10.61;83.25;98879.41;5078730;28;40819;-80
2022/09/19 05:01:36;;;;;;;4.87;2.73;;;;;;;10.65;82.76;98878.25;5078246;28;41916;-81
2022/09/19 05:04:05;;;;;;;3.87;2.20;;;;;;;10.74;83.08;98893.59;5095258;28;43287;-80
2022/09/19 05:06:33;;;;;;;8.40;2.90;;;;;;;10.74;83.01;98901.53;5078156;28;40085;-81
2022/09/19 05:09:03;;;;;;;4.50;2.47;;;;;;;10.74;82.85;98909.47;5078598;28;42337;-80
2022/09/19 05:11:43;;;;;;;5.10;2.07;;;;;;;10.68;82.98;98896.59;5078501;28;41731;-82
2022/09/19 05:14:11;;;;;;;2.37;1.83;;;;;;;10.76;82.95;98913.72;5078616;28;41521;-81
2022/09/19 05:16:45;;;;;;;3.83;2.10;;;;;;;10.77;83.05;98911.91;5078066;28;38892;-80
2022/09/19 05:19:13;;;;;;;3.27;2.20;;;;;;;10.81;82.77;98921.38;5078096;28;40835;-79
2022/09/19 05:21:44;;;;;;;3.77;2.40;;;;;;;10.70;82.89;98905.31;5078011;28;41976;-79
2022/09/19 05:24:14;;;;;;;5.13;2.90;;;;;;;10.83;82.94;98922.16;5078234;28;40911;-80
2022/09/19 05:26:44;;;;;;;4.17;2.00;;;;;;;10.85;83.23;98930.84;5077934;28;38889;-79
2022/09/19 05:29:17;;;;;;;2.97;2.20;;;;;;;10.90;82.82;98934.03;5077332;28;42018;-79
2022/09/19 05:32:04;;;;;;;3.53;2.43;;;;;;;10.94;82.63;98940.88;5077823;28;42989;-79
2022/09/19 05:34:49;;;;;;;2.60;2.03;;;;;;;10.99;82.80;98943.25;5091877;28;43217;-82
2022/09/19 05:37:45;;;;;;;5.63;3.07;;;;;;;10.92;82.54;98926.84;5094278;28;38530;-81
2022/09/19 05:40:31;;;;;;;3.77;2.00;;;;;;;11.07;82.53;98947.09;5094441;28;40617;-78
2022/09/19 05:43:11;;;;;;;3.97;2.13;;;;;;;11.13;82.45;98944.06;5077802;28;42464;-84
2022/09/19 05:45:38;;;;;;;5.57;2.43;;;;;;;11.09;82.51;98926.66;5077736;28;43094;-83
2022/09/19 05:48:07;;;;;;;3.83;2.37;;;;;;;11.21;82.27;98948.03;5094650;28;41079;-81
2022/09/19 05:50:37;;;;;;;5.47;2.77;;;;;;;11.06;82.22;98918.03;5078769;28;42794;-86
2022/09/19 05:55:51;;;;;;;5.03;2.60;;;;;;;11.14;82.13;98948.41;5074209;28;43190;-81
2022/09/19 05:58:43;;;;;;;6.10;2.60;;;;;;;11.01;81.88;98926.28;5088875;28;39903;-82
2022/09/19 06:01:12;;;;;;;5.33;3.10;;;;;;;11.12;82.07;98954.78;5081108;28;40375;-80
2022/09/19 06:03:41;;;;;;;3.67;2.30;;;;;;;11.10;82.04;98949.56;5080140;28;41709;-82
2022/09/19 06:06:14;;;;;;;2.57;2.20;;;;;;;11.03;82.11;98950.88;5097670;28;41953;-81
2022/09/19 06:08:43;;;;;;;5.00;2.97;;;;;;;10.95;82.25;98963.78;5094428;28;40957;-80
2022/09/19 06:11:15;;;;;;;5.80;2.90;;;;;;;10.87;82.47;98968.72;5095305;28;41822;-81
2022/09/19 06:16:29;;;;;;;4.93;2.73;;;;;;;10.71;82.75;98955.53;5111062;27;42280;-80
2022/09/19 06:19:15;;;;;;;7.03;2.73;;;;;;;10.66;82.88;98957.63;5118414;27;39855;-82
2022/09/19 06:21:44;;;;;;;4.70;2.80;;;;;;;10.79;83.13;98973.59;5117136;27;42692;-82
2022/09/19 06:24:12;;;;;;;6.47;2.87;;;;;;;10.95;83.20;98979.66;5100993;27;41841;-81
2022/09/19 06:26:40;;;;;;;4.60;2.50;;;;;;;10.87;82.99;98950.16;5098040;27;41156;-82
2022/09/19 06:29:09;;;;;;;3.60;2.20;;;;;;;11.35;82.68;98987.78;5080923;28;40150;-80
2022/09/19 06:31:40;;;;;;;5.77;2.70;;;;;;;11.46;82.31;98969.38;5095572;27;41560;-84
2022/09/19 06:34:27;;;;;;;3.97;2.20;;;;;;;11.81;81.63;98991.00;5112412;28;43038;-83
2022/09/19 06:36:57;;;;;;;3.63;2.20;;;;;;;11.97;81.09;98988.19;5075706;28;42388;-86
2022/09/19 06:39:25;;;;;;;4.27;2.40;;;;;;;12.19;80.91;99007.91;5060165;28;40018;-84
2022/09/19 06:42:15;;;;;;;5.83;2.73;;;;;;;12.37;79.36;99012.91;5097350;28;41801;-84
2022/09/19 06:45:22;;;;;;;2.73;2.50;;;;;;;12.36;78.50;98998.81;5080715;28;41416;-82
2022/09/19 06:48:07;;;;;;;5.10;2.90;;;;;;;12.37;78.29;98989.88;5079969;28;41163;-83
2022/09/19 06:50:49;;;;;;;4.00;2.30;;;;;;;12.58;78.13;99009.69;5080097;28;40165;-87
2022/09/19 06:53:19;;;;;;;4.40;2.60;;;;;;;12.74;78.18;99019.22;5079906;28;42922;-89
2022/09/19 06:55:50;;;;;;;5.07;2.10;;;;;;;12.82;77.73;99022.25;5094486;28;42771;-88
2022/09/19 06:58:25;;;;;;;4.30;2.33;;;;;;;12.85;77.62;99022.03;5080140;28;43711;-85
2022/09/19 07:00:55;;;;;;;5.33;2.90;;;;;;;12.92;77.51;99031.28;5079170;28;40976;-80
2022/09/19 07:03:24;;;;;;;6.47;2.30;;;;;;;13.10;76.85;99035.31;5096296;28;42680;-81
2022/09/19 07:06:01;;;;;;;5.63;2.90;;;;;;;13.26;76.40;99030.63;5094291;28;42555;-81
2022/09/19 07:09:06;;;;;;;4.37;2.20;;;;;;;13.63;75.91;99020.03;5079642;28;41103;-86
2022/09/19 07:11:35;;;;;;;4.43;2.37;;;;;;;15.23;74.47;99023.88;5062380;28;40105;-85
2022/09/19 07:14:04;;;;;;;7.37;2.23;;;;;;;17.34;67.76;99054.38;5079421;28;41006;-80
2022/09/19 07:16:33;;;;;;;4.20;2.00;;;;;;;17.83;65.01;99066.16;5095401;28;42689;-82
2022/09/19 07:19:03;;;;;;;5.10;1.50;;;;;;;19.29;62.72;99052.63;5079679;28;41503;-86
2022/09/19 07:21:34;;;;;;;3.03;1.60;;;;;;;20.13;59.67;99077.59;5096137;28;38905;-87
2022/09/19 07:24:06;;;;;;;2.77;1.53;;;;;;;20.32;58.20;99061.34;5079545;28;40766;-84
2022/09/19 07:26:54;;;;;;;4.97;1.77;;;;;;;20.65;57.46;99077.81;5045021;28;41718;-85
2022/09/19 07:29:23;;;;;;;2.60;1.40;;;;;;;20.85;55.83;99082.03;5079652;28;40984;-82
2022/09/19 07:31:53;;;;;;;2.40;1.67;;;;;;;21.09;53.29;99089.47;5096120;28;39561;-82
2022/09/19 07:34:22;;;;;;;3.17;1.60;;;;;;;20.83;52.86;99105.56;5079521;28;41703;-81
2022/09/19 07:36:52;;;;;;;4.10;1.57;;;;;;;22.04;51.14;99116.38;5078832;28;41982;-82
2022/09/19 07:39:20;;;;;;;3.07;1.40;;;;;;;24.27;47.75;99143.97;5096352;28;42379;-79
2022/09/19 07:42:11;;;;;;;2.57;1.70;;;;;;;23.34;44.52;99157.16;5066940;28;41516;-81
2022/09/19 07:44:59;;;;;;;2.27;1.10;;;;;;;21.57;47.48;99131.25;5079580;28;40449;-78
2022/09/19 07:47:47;;;;;;;3.53;1.37;;;;;;;20.44;50.09;99132.78;5078725;28;44465;-83
2022/09/19 07:50:22;;;;;;;3.90;1.30;;;;;;;19.66;52.24;99115.31;5079260;28;41096;-85
2022/09/19 07:53:06;;;;;;;3.73;1.30;;;;;;;19.02;53.84;99094.53;5079078;28;39231;-83
2022/09/19 07:55:36;;;;;;;4.57;1.70;;;;;;;18.73;55.10;99104.44;5093057;28;42757;-83
2022/09/19 07:58:06;;;;;;;2.60;1.63;;;;;;;18.36;56.10;99093.50;5078505;28;43118;-82
2022/09/19 08:00:55;;;;;;;4.57;1.40;;;;;;;17.96;57.30;99085.50;5095804;28;42979;-82
2022/09/19 08:03:44;;;;;;;2.73;1.60;;;;;;;17.78;57.54;99097.88;5096033;28;39833;-83
2022/09/19 08:06:12;;;;;;;4.03;1.37;;;;;;;17.53;57.80;99102.69;5093602;28;41633;-80
2022/09/19 08:08:42;;;;;;;2.37;1.53;;;;;;;17.30;58.29;99090.44;5095575;28;43560;-85
2022/09/19 08:12:05;;;;;;;2.77;1.90;;;;;;;17.18;59.31;99086.16;5033545;28;42514;-90
2022/09/19 08:14:37;;;;;;;2.33;1.80;;;;;;;16.92;59.12;99074.13;5076762;28;39834;-83
2022/09/19 08:17:05;;;;;;;3.87;1.67;;;;;;;16.92;59.26;99090.19;5079300;28;42014;-92
2022/09/19 08:19:35;;;;;;;4.00;1.67;;;;;;;16.58;58.75;99066.22;5078877;28;41916;-89
2022/09/19 08:22:03;;;;;;;3.87;1.90;;;;;;;16.76;59.52;99086.13;5078121;28;43093;-88
2022/09/19 08:24:37;;;;;;;3.63;1.70;;;;;;;16.82;59.08;99112.34;5079959;28;39507;-86
2022/09/19 08:27:11;;;;;;;1.60;1.50;;;;;;;16.85;60.06;99089.84;5078505;28;41746;-88
2022/09/19 08:29:40;;;;;;;4.33;1.50;;;;;;;17.12;59.88;99092.00;5078663;28;41889;-88
2022/09/19 08:32:12;;;;;;;1.47;1.33;;;;;;;18.45;56.79;99146.28;5077742;28;41312;-90
2022/09/19 08:34:50;;;;;;;2.57;1.70;;;;;;;19.01;55.77;99146.53;5078741;28;39806;-86
2022/09/19 08:37:38;;;;;;;2.30;1.40;;;;;;;19.63;54.45;99153.25;5078163;28;42009;-86
2022/09/19 08:40:28;;;;;;;4.33;1.70;;;;;;;19.55;53.06;99139.66;5078722;28;43662;-88
2022/09/19 08:43:09;;;;;;;3.73;1.60;;;;;;;19.58;53.25;99163.56;5029534;28;41387;-87
2022/09/19 08:46:03;;;;;;;2.33;1.17;;;;;;;19.34;54.10;99147.03;5053886;28;38801;-84
2022/09/19 08:48:43;;;;;;;3.37;1.40;;;;;;;19.04;54.09;99128.44;5037534;28;40957;-86
2022/09/19 08:51:18;;;;;;;3.73;1.90;;;;;;;19.14;53.15;99134.66;5037307;28;44169;-80
2022/09/19 08:53:50;;;;;;;5.97;1.87;;;;;;;19.96;52.53;99169.81;5036353;28;41380;-82
2022/09/19 08:56:22;;;;;;;5.57;1.40;;;;;;;21.44;50.59;99155.94;5037529;28;39091;-85
2022/09/19 08:58:57;;;;;;;2.93;1.20;;;;;;;21.72;49.52;99179.03;5036998;28;40934;-84
2022/09/19 09:01:46;;;;;;;3.23;1.33;;;;;;;21.21;49.27;99173.59;5036704;28;42925;-85
2022/09/19 09:04:35;;;;;;;2.83;1.20;;;;;;;20.89;49.57;99158.81;5053944;28;41369;-85
2022/09/19 09:07:28;;;;;;;3.60;1.50;;;;;;;21.15;48.67;99170.47;5056314;27;39108;-86
2022/09/19 09:10:25;;;;;;;3.70;1.50;;;;;;;20.44;48.51;99157.00;5114739;27;41779;-85
2022/09/19 09:13:13;;;;;;;3.67;1.33;;;;;;;20.15;49.77;99183.19;5113448;27;43559;-88
2022/09/19 09:15:58;;;;;;;5.73;1.47;;;;;;;19.55;50.70;99177.28;5098104;27;43053;-85
2022/09/19 09:18:44;;;;;;;4.50;1.30;;;;;;;19.02;51.21;99148.22;5097309;27;38994;-84
2022/09/19 09:21:23;;;;;;;3.30;1.53;;;;;;;19.26;51.48;99171.09;5115780;27;41924;-85
2022/09/19 09:23:58;;;;;;;2.30;1.23;;;;;;;18.98;50.43;99184.38;5097018;27;44124;-85
2022/09/19 09:26:57;;;;;;;5.27;1.33;;;;;;;18.61;51.92;99145.78;5097285;27;43934;-88
2022/09/19 09:29:32;;;;;;;4.17;1.60;;;;;;;18.44;52.50;99178.63;5097660;27;39888;-84
2022/09/19 09:37:56;;;;;;;2.70;1.47;;;;;;;18.05;55.13;99158.91;5109185;27;42770;-85
2022/09/19 09:43:25;;;;;;;2.70;1.47;;;;;;;18.06;55.15;99177.50;5097926;27;41333;-84
2022/09/19 09:46:00;;;;;;;3.27;1.60;;;;;;;18.05;54.83;99167.75;5098154;27;42742;-82
2022/09/19 09:48:33;;;;;;;2.50;1.37;;;;;;;18.02;54.54;99184.13;5097797;27;42348;-82
2022/09/19 09:51:18;;;;;;;2.13;1.50;;;;;;;17.99;54.94;99160.28;5097889;27;41432;-86
2022/09/19 09:54:06;;;;;;;4.80;1.80;;;;;;;18.03;54.92;99164.41;5111329;27;42018;-83
2022/09/19 09:56:45;;;;;;;2.60;1.60;;;;;;;18.22;54.29;99179.69;5097622;27;43141;-85
2022/09/19 10:05:33;;;;;;;2.60;1.60;;;;;;;18.73;53.38;99190.28;5097715;27;40868;-84
2022/09/19 10:08:15;;;;;;;2.17;1.17;;;;;;;19.07;52.84;99181.81;5097204;27;41710;-83
2022/09/19 10:10:53;;;;;;;5.67;1.60;;;;;;;19.38;52.16;99180.69;5115239;27;41625;-87
2022/09/19 10:13:58;;;;;;;3.63;1.80;;;;;;;19.88;51.04;99204.66;5096299;27;41681;-84
2022/09/19 10:16:32;;;;;;;2.00;1.30;;;;;;;20.93;49.91;99192.50;5080161;27;42131;-86
2022/09/19 10:19:25;;;;;;;5.30;1.30;;;;;;;22.03;46.99;99203.69;5097724;27;41768;-86
2022/09/19 10:21:54;;;;;;;2.50;1.30;;;;;;;23.19;45.17;99211.03;5096624;27;41611;-81
2022/09/19 10:27:41;;;;;;;2.43;1.33;;;;;;;25.93;40.31;99236.34;5088278;27;42320;-84
2022/09/19 10:30:25;;;;;;;2.67;1.00;;;;;;;25.58;40.27;99235.13;5097530;27;43105;-85
2022/09/19 10:33:24;;;;;;;2.33;1.50;;;;;;;23.97;39.41;99211.38;5096453;27;42920;-84
2022/09/19 10:36:32;;;;;;;2.13;1.07;;;;;;;22.77;41.24;99245.38;5097571;27;39390;-84
2022/09/19 10:39:09;;;;;;;1.87;1.20;;;;;;;21.50;44.36;99228.09;5100799;27;41193;-83
2022/09/19 10:41:40;;;;;;;4.43;1.23;;;;;;;20.65;46.73;99210.53;5082984;27;41866;-83
2022/09/19 10:44:19;;;;;;;5.33;1.30;;;;;;;20.22;48.22;99194.19;5115033;27;42397;-82
2022/09/19 10:46:52;;;;;;;3.90;1.60;;;;;;;20.21;49.42;99187.09;5100743;27;39419;-84
2022/09/19 10:49:46;;;;;;;2.90;1.80;;;;;;;20.36;48.72;99183.81;5117354;27;42010;-84
2022/09/19 10:52:24;;;;;;;2.67;1.50;;;;;;;20.47;48.25;99204.28;5100274;27;41641;-82
2022/09/19 10:54:58;;;;;;;4.00;1.33;;;;;;;20.34;48.56;99166.94;5100629;27;42425;-82
2022/09/19 10:57:40;;;;;;;3.40;1.40;;;;;;;21.58;46.18;99203.88;5099994;27;38957;-82
2022/09/19 11:00:23;;;;;;;2.77;1.87;;;;;;;23.25;44.21;99218.44;5084247;27;42040;-83
2022/09/19 11:03:00;;;;;;;4.33;1.33;;;;;;;23.37;43.44;99210.03;5100025;27;43319;-86
2022/09/19 11:08:30;;;;;;;1.83;1.10;;;;;;;22.46;43.39;99227.00;5098998;27;41855;-82
2022/09/19 11:11:03;;;;;;;4.17;1.37;;;;;;;21.84;44.28;99226.31;5100591;27;40811;-81
2022/09/19 11:13:38;;;;;;;4.27;1.30;;;;;;;21.15;45.38;99216.28;5114097;27;43777;-82
2022/09/19 11:16:20;;;;;;;5.43;1.50;;;;;;;20.52;47.21;99201.16;5099996;27;42640;-81
2022/09/19 11:19:03;;;;;;;2.43;1.37;;;;;;;20.08;48.17;99208.97;5113990;27;40999;-82
2022/09/19 11:22:01;;;;;;;2.63;1.20;;;;;;;19.59;49.10;99180.53;5099754;27;40845;-81
2022/09/19 11:24:53;;;;;;;4.20;1.90;;;;;;;18.63;53.92;99149.19;5099848;27;42161;-82
2022/09/19 11:30:18;;;;;;;1.97;1.73;;;;;;;17.73;59.05;99151.00;5113639;28;39658;-82
2022/09/19 11:33:18;;;;;;;3.47;1.80;;;;;;;17.48;60.09;99131.66;5111974;28;42766;-83
2022/09/19 11:36:27;;;;;;;3.43;2.13;;;;;;;18.03;59.55;99137.59;5113139;27;41784;-82
2022/09/19 11:39:02;;;;;;;2.83;1.60;;;;;;;19.23;59.50;99142.69;5095738;28;42523;-78
2022/09/19 11:41:51;;;;;;;3.73;1.47;;;;;;;20.69;54.22;99176.09;5096237;28;38995;-84
2022/09/19 11:44:43;;;;;;;3.43;1.57;;;;;;;23.01;50.57;99182.47;5096316;28;42215;-82
2022/09/19 11:47:38;;;;;;;2.00;1.20;;;;;;;23.18;47.93;99194.97;5096110;28;42426;-84
2022/09/19 11:54:09;;;;;;;4.00;1.73;;;;;;;23.78;47.04;99179.25;5094543;28;39222;-84
2022/09/19 11:57:00;;;;;;;3.10;1.20;;;;;;;24.15;44.44;99181.34;5095767;28;41102;-86
2022/09/19 12:00:03;;;;;;;2.60;1.37;;;;;;;23.70;45.27;99211.75;5096023;28;42384;-86
2022/09/19 12:03:23;;;;;;;3.17;1.50;;;;;;;23.16;45.61;99214.06;5095427;28;42478;-86
2022/09/19 12:06:34;;;;;;;2.30;1.40;;;;;;;22.87;46.62;99202.88;5096290;28;39434;-85
2022/09/19 12:09:18;;;;;;;2.07;1.20;;;;;;;22.11;45.80;99194.81;5095921;28;41864;-83
2022/09/19 12:12:11;;;;;;;2.70;1.50;;;;;;;21.54;48.55;99175.53;5095268;28;41648;-82
2022/09/19 12:15:06;;;;;;;1.40;1.30;;;;;;;21.40;49.39;99159.94;5095585;28;41245;-85
2022/09/19 12:17:42;;;;;;;2.33;1.37;;;;;;;22.55;47.17;99172.03;5095091;28;40197;-84
2022/09/19 12:20:27;;;;;;;2.13;1.40;;;;;;;24.83;44.57;99171.78;5095993;28;40679;-85
2022/09/19 12:22:58;;;;;;;2.67;1.50;;;;;;;25.23;42.77;99190.47;5095381;28;45560;-82
2022/09/19 12:25:29;;;;;;;2.10;1.33;;;;;;;24.45;43.35;99189.75;5096038;28;43498;-84
2022/09/19 12:28:06;;;;;;;2.23;1.57;;;;;;;24.12;43.46;99210.63;5095530;28;38848;-84
2022/09/19 12:30:43;;;;;;;1.97;1.30;;;;;;;23.97;44.71;99197.00;5094923;28;42639;-87
2022/09/19 12:33:21;;;;;;;2.20;1.43;;;;;;;23.51;45.28;99174.22;5095295;28;41938;-81
2022/09/19 12:35:57;;;;;;;1.90;1.30;;;;;;;23.04;44.17;99201.03;5095168;28;44046;-85
2022/09/19 12:38:50;;;;;;;2.57;1.70;;;;;;;22.25;45.64;99169.94;5112406;28;40559;-89
2022/09/19 12:41:30;;;;;;;2.63;1.33;;;;;;;21.34;46.87;99141.72;5096062;28;41297;-89
2022/09/19 12:44:10;;;;;;;4.27;1.50;;;;;;;21.05;49.07;99175.09;5095067;28;42550;-81
2022/09/19 12:46:51;;;;;;;1.77;1.20;;;;;;;20.49;51.34;99153.00;5095395;28;40838;-85
2022/09/19 12:49:42;;;;;;;2.87;1.90;;;;;;;19.60;53.50;99126.66;5171207;27;21089;-83
2022/09/19 12:52:18;;;;;;;1.63;1.53;;;;;;;19.07;55.77;99138.88;5135347;27;38974;-86
2022/09/19 12:54:57;;;;;;;3.50;1.80;;;;;;;18.38;57.49;99130.91;5136269;27;41924;-82
2022/09/19 12:57:36;;;;;;;3.40;1.80;;;;;;;17.87;58.70;99121.16;5135575;27;41776;-85
2022/09/19 13:00:10;;;;;;;3.00;1.87;;;;;;;17.57;60.66;99127.34;5153016;27;41331;-88